CheckWX is a tool to help pilots better visualize weather data.  It is not intended as a substitute for an official pre-flight weather briefing.

03:22:52 UTC

KJAC METAR
Jackson Hole Airport
Jackson, Wyoming, USA
Current

27 mins ago

KJAC 290256Z 00000KT 10SM CLR M09/M13 A3015 RMK AO2 SLP312 T10891128 58015
Observed
Feb-29 @ 02:56 UTC
Visibility
10 SM
Flight Rules
VFR
Cloud Levels
  • Clear skies
Temperature
-9°C / 16°F
Dewpoint
-13°C / 9°F
Humidity
73%
Altimeter
30.15" Hg
Pressure
1021.02 hPa
Previous

1 hour ago

KJAC 290156Z 00000KT 10SM CLR M03/M09 A3017 RMK AO2 SLP299 T10331089
Observed
Feb-29 @ 01:56 UTC
Visibility
10 SM
Flight Rules
VFR
Cloud Levels
  • Clear skies
Temperature
-3°C / 27°F
Dewpoint
-9°C / 16°F
Humidity
64%
Altimeter
30.17" Hg
Pressure
1021.72 hPa
Previous

2 hours ago

KJAC 290056Z 11003KT 10SM CLR M03/M09 A3019 RMK AO2 SLP306 T10281089
Observed
Feb-29 @ 00:56 UTC
Wind
  • 110° at 3 KTS
Visibility
10 SM
Flight Rules
VFR
Cloud Levels
  • Clear skies
Temperature
-3°C / 27°F
Dewpoint
-9°C / 16°F
Humidity
64%
Altimeter
30.19" Hg
Pressure
1022.32 hPa